createdAt,value
2023-03-19T00:01:11.885Z,16.2
2023-03-19T00:02:28.182Z,20
2023-03-19T00:03:44.458Z,18.5
2023-03-19T00:05:00.766Z,18.3
2023-03-19T00:06:17.053Z,17.9
2023-03-19T00:07:33.343Z,18.3
2023-03-19T00:08:49.641Z,17.2
2023-03-19T00:10:04.953Z,19.4
2023-03-19T00:11:21.252Z,16.1
2023-03-19T00:12:37.542Z,16.7
2023-03-19T00:13:53.841Z,19.2
2023-03-19T00:15:10.126Z,19.1
2023-03-19T00:16:26.419Z,17.6
2023-03-19T00:17:42.707Z,19.3
2023-03-19T00:18:59.017Z,18.7
2023-03-19T00:20:15.309Z,19.2
2023-03-19T00:21:31.603Z,16.8
2023-03-19T00:22:47.902Z,19
2023-03-19T00:24:04.202Z,17.3
2023-03-19T00:25:20.476Z,17
2023-03-19T00:26:35.790Z,18.1
2023-03-19T00:27:52.076Z,21.6
2023-03-19T00:29:08.376Z,19.3
2023-03-19T00:30:24.668Z,17.3
2023-03-19T00:31:40.958Z,20.4
2023-03-19T00:32:57.258Z,18.9
2023-03-19T00:34:13.550Z,18.4
2023-03-19T00:35:29.848Z,16
2023-03-19T00:36:46.139Z,18.5
2023-03-19T00:38:02.427Z,20.1
2023-03-19T00:39:18.721Z,19.3
2023-03-19T00:40:35.021Z,18.7
2023-03-19T00:41:51.315Z,19.1
2023-03-19T00:43:06.626Z,18.8
2023-03-19T00:44:22.919Z,18.4
2023-03-19T00:45:39.209Z,18.6
2023-03-19T00:46:55.500Z,17.1
2023-03-19T00:48:11.801Z,17.7
2023-03-19T00:49:28.090Z,18.4
2023-03-19T00:50:44.392Z,16.2
2023-03-19T00:52:00.689Z,20.3
2023-03-19T00:53:16.971Z,19
2023-03-19T00:54:33.279Z,18.2
2023-03-19T00:55:49.570Z,19.3
2023-03-19T00:57:05.859Z,17.1
2023-03-19T00:58:22.150Z,17.8
2023-03-19T00:59:38.455Z,18.4
2023-03-19T01:00:53.757Z,19.4
2023-03-19T01:02:10.046Z,17.7
2023-03-19T01:03:26.357Z,17
2023-03-19T01:04:42.651Z,19.3
2023-03-19T01:05:58.936Z,17.2
2023-03-19T01:07:15.245Z,18.5
2023-03-19T01:08:31.523Z,20.1
2023-03-19T01:09:47.826Z,18.9
2023-03-19T01:11:04.114Z,19
2023-03-19T01:12:20.406Z,18
2023-03-19T01:13:36.694Z,18.3
2023-03-19T01:14:52.989Z,19.5
2023-03-19T01:16:09.286Z,18
2023-03-19T01:17:24.593Z,18.1
2023-03-19T01:18:40.899Z,17.3
2023-03-19T01:19:57.191Z,19.7
2023-03-19T01:21:13.479Z,18.7
2023-03-19T01:22:29.775Z,16.1
2023-03-19T01:23:46.063Z,17.3
2023-03-19T01:25:02.353Z,17.6
2023-03-19T01:26:18.664Z,18.8
2023-03-19T01:27:34.957Z,16.8
2023-03-19T01:28:51.235Z,16.7
2023-03-19T01:30:07.540Z,17.4
2023-03-19T01:31:23.825Z,17.4
2023-03-19T01:32:40.129Z,18.8
2023-03-19T01:33:55.437Z,18.8
2023-03-19T01:35:11.729Z,17.3
2023-03-19T01:36:28.021Z,18.6
2023-03-19T01:37:44.320Z,16.9
2023-03-19T01:39:00.613Z,17.2
2023-03-19T01:40:16.906Z,18.1
2023-03-19T01:41:33.203Z,19.3
2023-03-19T01:42:49.483Z,17
2023-03-19T01:45:22.083Z,18.2
2023-03-19T01:46:38.371Z,16.5
2023-03-19T01:47:54.672Z,17.6
2023-03-19T01:49:10.958Z,18.5
2023-03-19T01:50:26.266Z,17
2023-03-19T01:51:42.571Z,17.5
2023-03-19T01:52:58.862Z,18.4
2023-03-19T01:54:15.147Z,18
2023-03-19T01:55:31.442Z,17.3
2023-03-19T01:56:47.735Z,18.4
2023-03-19T01:58:04.040Z,17.1
2023-03-19T01:59:20.340Z,16.5
2023-03-19T02:00:36.631Z,17.7
2023-03-19T02:01:52.926Z,19
2023-03-19T02:03:09.204Z,17.8
2023-03-19T02:04:25.505Z,18.3
2023-03-19T02:05:41.793Z,16.7
2023-03-19T02:06:57.100Z,17.8
2023-03-19T02:08:13.401Z,17.9
2023-03-19T02:09:29.697Z,16.3
2023-03-19T02:10:45.993Z,15.6
2023-03-19T02:12:02.289Z,16.4
2023-03-19T02:13:18.588Z,16.9
2023-03-19T02:14:34.870Z,16.5
2023-03-19T02:15:51.172Z,16.2
2023-03-19T02:17:07.466Z,18.3
2023-03-19T02:18:23.773Z,17.6
2023-03-19T02:19:40.044Z,19.1
2023-03-19T02:20:56.339Z,17.2
2023-03-19T02:22:12.643Z,16.8
2023-03-19T02:23:27.940Z,18.2
2023-03-19T02:24:44.239Z,17.8
2023-03-19T02:26:00.541Z,17.7
2023-03-19T02:27:16.836Z,17.1
2023-03-19T02:28:33.126Z,18.4
2023-03-19T02:29:48.443Z,17.1
2023-03-19T02:31:04.731Z,17.8
2023-03-19T02:32:21.031Z,17.2
2023-03-19T02:33:37.325Z,15.8
2023-03-19T02:34:53.607Z,19.2
2023-03-19T02:36:09.917Z,17
2023-03-19T02:37:26.210Z,17.4
2023-03-19T02:38:42.489Z,18.3
2023-03-19T02:39:58.795Z,15.6
2023-03-19T02:41:15.081Z,18.9
2023-03-19T02:42:31.377Z,16.2
2023-03-19T02:43:47.677Z,16.7
2023-03-19T02:45:03.972Z,15.2
2023-03-19T02:46:19.277Z,18
2023-03-19T02:47:35.569Z,17.1
2023-03-19T02:48:51.868Z,18.2
2023-03-19T02:50:08.169Z,16
2023-03-19T02:51:24.455Z,20.1
2023-03-19T02:52:40.748Z,16.7
2023-03-19T02:53:57.045Z,17.5
2023-03-19T02:55:13.345Z,17.1
2023-03-19T02:56:29.630Z,17.6
2023-03-19T02:57:45.928Z,16.9
2023-03-19T02:59:02.211Z,18.2
2023-03-19T03:01:34.797Z,15.7
2023-03-19T03:02:50.117Z,17.7
2023-03-19T03:04:06.421Z,15.9
2023-03-19T03:05:22.715Z,16.8
2023-03-19T03:06:39.005Z,16.8
2023-03-19T03:07:55.293Z,16.5
2023-03-19T03:09:11.593Z,17.7
2023-03-19T03:10:27.881Z,16.1
2023-03-19T03:11:44.178Z,19.3
2023-03-19T03:13:00.460Z,15.2
2023-03-19T03:14:16.772Z,16.3
2023-03-19T03:15:33.055Z,18.3
2023-03-19T03:16:49.369Z,17
2023-03-19T03:18:05.651Z,15.7
2023-03-19T03:19:20.958Z,15.6
2023-03-19T03:20:37.249Z,15.5
2023-03-19T03:21:53.555Z,16.3
2023-03-19T03:23:09.850Z,16.7
2023-03-19T03:24:26.000Z,17
2023-03-19T03:25:42.417Z,17.3
2023-03-19T03:26:58.717Z,17.1
2023-03-19T03:28:15.005Z,17.5
2023-03-19T03:29:31.299Z,16.4
2023-03-19T03:30:47.603Z,16.1
2023-03-19T03:32:03.000Z,17
2023-03-19T03:33:20.196Z,16.4
2023-03-19T03:34:36.503Z,16.6
2023-03-19T03:35:51.798Z,17.2
2023-03-19T03:37:08.091Z,17.1
2023-03-19T03:38:24.390Z,14.4
2023-03-19T03:39:40.667Z,15.8
2023-03-19T03:40:56.977Z,17.5
2023-03-19T03:42:13.280Z,17.4
2023-03-19T03:43:29.554Z,17.4
2023-03-19T03:44:45.847Z,17.4
2023-03-19T03:46:02.147Z,18.1
2023-03-19T03:47:18.443Z,16
2023-03-19T03:48:34.728Z,18.8
2023-03-19T03:49:51.029Z,18.5
2023-03-19T03:51:07.337Z,18.4
2023-03-19T03:52:22.643Z,17
2023-03-19T03:53:38.927Z,16.9
2023-03-19T03:54:55.211Z,15.9
2023-03-19T03:56:11.522Z,15.5
2023-03-19T03:57:27.816Z,17.5
2023-03-19T03:58:44.111Z,19.1
2023-03-19T04:00:00.391Z,17.4
2023-03-19T04:01:16.702Z,16.8
2023-03-19T04:02:32.988Z,16
2023-03-19T04:03:49.282Z,17
2023-03-19T04:05:05.581Z,17.9
2023-03-19T04:06:21.878Z,17.4
2023-03-19T04:07:38.171Z,17
2023-03-19T04:08:53.475Z,18
2023-03-19T04:10:09.771Z,17.9
2023-03-19T04:11:26.059Z,16.6
2023-03-19T04:12:42.347Z,17.3
2023-03-19T04:13:58.644Z,15.6
2023-03-19T04:15:14.950Z,18
2023-03-19T04:16:31.244Z,17.8
2023-03-19T04:17:47.535Z,15.4
2023-03-19T04:19:03.826Z,17
2023-03-19T04:20:20.124Z,17
2023-03-19T04:21:36.411Z,15.8
2023-03-19T04:22:52.713Z,15.6
2023-03-19T04:24:08.992Z,17.1
2023-03-19T04:25:24.326Z,16.7
2023-03-19T04:26:40.601Z,16.7
2023-03-19T04:27:56.891Z,16.6
2023-03-19T04:29:13.201Z,16.8
2023-03-19T04:30:29.491Z,17.6
2023-03-19T04:31:45.773Z,15.5
2023-03-19T04:33:02.082Z,16.7
2023-03-19T04:34:18.363Z,17.2
2023-03-19T04:35:34.672Z,17.9
2023-03-19T04:36:50.963Z,17.6
2023-03-19T04:38:07.258Z,16.9
2023-03-19T04:39:23.543Z,16.6
2023-03-19T04:40:39.837Z,17.9
2023-03-19T04:41:55.156Z,16.5
2023-03-19T04:43:11.444Z,15.7
2023-03-19T04:44:27.739Z,17
2023-03-19T04:45:43.975Z,17.9
2023-03-19T04:47:00.271Z,15.4
2023-03-19T04:48:16.540Z,18.9
2023-03-19T04:49:32.772Z,16.5
2023-03-19T04:50:49.014Z,14.9
2023-03-19T04:52:05.251Z,15.4
2023-03-19T04:53:21.493Z,17.8
2023-03-19T04:54:37.727Z,16
2023-03-19T04:55:53.958Z,15.2
2023-03-19T04:57:10.204Z,16.8
2023-03-19T04:58:25.463Z,16.5
2023-03-19T04:59:41.707Z,16.2
2023-03-19T05:00:57.940Z,16.4
2023-03-19T05:02:14.183Z,17
2023-03-19T05:03:30.419Z,16.8
2023-03-19T05:04:46.671Z,17.1
2023-03-19T05:06:02.895Z,16.3
2023-03-19T05:07:19.134Z,15.9
2023-03-19T05:08:35.391Z,15.3
2023-03-19T05:09:51.617Z,16.3
2023-03-19T05:11:07.852Z,15.9
2023-03-19T05:12:24.106Z,16.8
2023-03-19T05:13:40.333Z,16.3
2023-03-19T05:14:55.589Z,15.1
2023-03-19T05:16:11.842Z,16.6
2023-03-19T05:17:28.069Z,16.2
2023-03-19T05:18:44.310Z,16
2023-03-19T05:20:00.549Z,15.4
2023-03-19T05:21:16.809Z,17
2023-03-19T05:22:33.037Z,16.3
2023-03-19T05:23:49.283Z,14.8
2023-03-19T05:25:05.512Z,17
2023-03-19T05:26:21.776Z,17
2023-03-19T05:27:37.991Z,15.4
2023-03-19T05:28:54.241Z,15
2023-03-19T05:30:10.477Z,15.7
2023-03-19T05:31:25.738Z,15.5
2023-03-19T05:32:41.964Z,16.9
2023-03-19T05:33:58.000Z,15.7
2023-03-19T05:35:14.462Z,15.2
2023-03-19T05:36:30.700Z,18.3
2023-03-19T05:37:46.926Z,16.1
2023-03-19T05:39:03.188Z,16.6
2023-03-19T05:40:19.411Z,14.4
2023-03-19T05:41:35.654Z,16.1
2023-03-19T05:42:51.895Z,16.8
2023-03-19T05:44:08.142Z,14.4
2023-03-19T05:45:24.384Z,17.6
2023-03-19T05:46:40.619Z,16.1
2023-03-19T05:47:55.871Z,14.3
2023-03-19T05:49:12.104Z,14.9
2023-03-19T05:50:28.344Z,16.6
2023-03-19T05:51:44.598Z,18.1
2023-03-19T05:53:00.832Z,16.1
2023-03-19T05:54:17.073Z,17.4
2023-03-19T05:55:33.316Z,18.5
2023-03-19T05:56:49.541Z,17.4
2023-03-19T05:58:05.792Z,16.1
2023-03-19T05:59:22.041Z,16.3
2023-03-19T06:00:38.275Z,16.6
2023-03-19T06:01:54.518Z,15.4
2023-03-19T06:03:10.743Z,15.3
2023-03-19T06:04:26.024Z,15.7
2023-03-19T06:05:42.248Z,15
2023-03-19T06:06:58.482Z,15.6
2023-03-19T06:08:14.725Z,15.7
2023-03-19T06:09:30.974Z,15.8
2023-03-19T06:10:47.219Z,16
2023-03-19T06:12:03.468Z,15.5
2023-03-19T06:13:19.689Z,16.8
2023-03-19T06:14:35.937Z,15.9
2023-03-19T06:15:52.162Z,14.7
2023-03-19T06:17:08.424Z,15.1
2023-03-19T06:18:24.647Z,15
2023-03-19T06:19:40.899Z,16.3
2023-03-19T06:20:56.148Z,17.2
2023-03-19T06:22:12.376Z,17.2
2023-03-19T06:23:28.626Z,18
2023-03-19T06:24:44.860Z,17.2
2023-03-19T06:26:01.099Z,17
2023-03-19T06:27:17.336Z,18.2
2023-03-19T06:28:33.578Z,13.9
2023-03-19T06:29:49.817Z,15.4
2023-03-19T06:31:06.066Z,15.1
2023-03-19T06:32:22.326Z,16.2
2023-03-19T06:33:38.549Z,16.1
2023-03-19T06:34:54.785Z,15.5
2023-03-19T06:36:11.025Z,15.8
2023-03-19T06:37:26.290Z,16.3
2023-03-19T06:38:42.518Z,15.2
2023-03-19T06:39:58.772Z,14.4
2023-03-19T06:41:14.992Z,16.9
2023-03-19T06:42:31.244Z,14.5
2023-03-19T06:43:47.472Z,15.3
2023-03-19T06:45:02.737Z,15.7
2023-03-19T06:46:18.973Z,16
2023-03-19T06:47:35.228Z,15.1
2023-03-19T06:48:51.460Z,15
2023-03-19T06:50:07.698Z,14.4
2023-03-19T06:51:23.932Z,15
2023-03-19T06:52:40.185Z,15.9
2023-03-19T06:53:56.430Z,15.3
2023-03-19T06:55:12.665Z,15.8
2023-03-19T06:56:28.905Z,15.3
2023-03-19T06:57:45.132Z,16.1
2023-03-19T06:59:01.378Z,16.4
2023-03-19T07:00:17.616Z,14.4
2023-03-19T07:01:32.870Z,15.2
2023-03-19T07:02:49.123Z,14.6
2023-03-19T07:04:05.365Z,15.6
2023-03-19T07:05:21.590Z,16.2
2023-03-19T07:06:37.845Z,14.8
2023-03-19T07:07:54.076Z,14.8
2023-03-19T07:09:10.308Z,15.7
2023-03-19T07:10:26.564Z,14.5
2023-03-19T07:11:42.795Z,14.9
2023-03-19T07:12:59.049Z,13.7
2023-03-19T07:14:15.275Z,12.5
2023-03-19T07:15:31.531Z,14.1
2023-03-19T07:16:47.764Z,16.6
2023-03-19T07:18:03.016Z,14.8
2023-03-19T07:19:19.254Z,12.9
2023-03-19T07:20:35.484Z,15.5
2023-03-19T07:21:51.737Z,17.2
2023-03-19T07:23:07.985Z,13.7
2023-03-19T07:24:24.216Z,12.9
2023-03-19T07:25:40.452Z,15.3
2023-03-19T07:26:56.692Z,14.6
2023-03-19T07:28:12.931Z,13
2023-03-19T07:29:29.158Z,14.4
2023-03-19T07:30:45.409Z,14
2023-03-19T07:32:01.656Z,13.8
2023-03-19T07:33:17.911Z,14.7
2023-03-19T07:34:33.148Z,13.9
2023-03-19T07:35:49.393Z,15.8
2023-03-19T07:37:05.613Z,14.6
2023-03-19T07:38:21.854Z,15.5
2023-03-19T07:39:38.092Z,14.5
2023-03-19T07:40:54.335Z,14.6
2023-03-19T07:42:10.578Z,13.2
2023-03-19T07:43:26.815Z,15.2
2023-03-19T07:44:43.068Z,14.1
2023-03-19T07:45:59.292Z,14.8
2023-03-19T07:47:15.537Z,15.9
2023-03-19T07:48:31.772Z,14.6
2023-03-19T07:49:48.018Z,14.9
2023-03-19T07:51:03.273Z,13.1
2023-03-19T07:52:19.517Z,12.1
2023-03-19T07:53:35.757Z,14.6
2023-03-19T07:54:52.004Z,15.5
2023-03-19T07:56:08.240Z,13.5
2023-03-19T07:57:24.480Z,15.2
2023-03-19T07:58:40.729Z,12.3
2023-03-19T07:59:56.954Z,13.4
2023-03-19T08:01:13.206Z,14.5
2023-03-19T08:02:29.440Z,13.6
2023-03-19T08:03:45.664Z,13.1
2023-03-19T08:05:01.904Z,13
2023-03-19T08:06:18.157Z,14
2023-03-19T08:07:33.405Z,13.2
2023-03-19T08:08:49.658Z,14.3
2023-03-19T08:10:05.888Z,17
2023-03-19T08:11:22.150Z,13
2023-03-19T08:12:38.372Z,12.8
2023-03-19T08:13:54.617Z,13.4
2023-03-19T08:15:10.856Z,15.8
2023-03-19T08:16:27.099Z,13.7
2023-03-19T08:17:43.327Z,13.4
2023-03-19T08:18:59.563Z,14.7
2023-03-19T08:20:15.804Z,15
2023-03-19T08:21:32.039Z,13.1
2023-03-19T08:22:48.290Z,15.1
2023-03-19T08:24:03.535Z,13.2
2023-03-19T08:25:19.787Z,14.2
2023-03-19T08:26:36.043Z,13.4
2023-03-19T08:27:52.270Z,14.4
2023-03-19T08:29:08.500Z,14
2023-03-19T08:30:24.745Z,12.6
2023-03-19T08:31:40.989Z,14.3
2023-03-19T08:32:57.227Z,14.3
2023-03-19T08:34:13.462Z,12.4
2023-03-19T08:35:29.701Z,12.8
2023-03-19T08:36:45.937Z,12.6
2023-03-19T08:38:02.186Z,13.7
2023-03-19T08:39:18.413Z,14.4
2023-03-19T08:40:33.678Z,14.6
2023-03-19T08:41:49.924Z,15
2023-03-19T08:43:06.155Z,14.2
2023-03-19T08:44:22.407Z,13
2023-03-19T08:45:38.630Z,13.1
2023-03-19T08:46:54.869Z,13.4
2023-03-19T08:48:11.124Z,11.2
2023-03-19T08:49:27.370Z,14.7
2023-03-19T08:50:43.601Z,12
2023-03-19T08:51:59.855Z,14.5
2023-03-19T08:53:16.063Z,13.8
2023-03-19T08:54:32.306Z,13.9
2023-03-19T08:55:48.550Z,12.9
2023-03-19T08:57:03.824Z,15.2
2023-03-19T08:58:20.045Z,12.8
2023-03-19T08:59:36.304Z,13.5
2023-03-19T09:00:52.520Z,14.2
2023-03-19T09:02:08.792Z,13.7
2023-03-19T09:03:25.007Z,14.3
2023-03-19T09:04:41.265Z,14
2023-03-19T09:05:57.494Z,12.5
2023-03-19T09:07:13.717Z,14
2023-03-19T09:08:29.981Z,12.9
2023-03-19T09:09:46.210Z,12.4
2023-03-19T09:11:02.438Z,12.2
2023-03-19T09:12:18.695Z,13.1
2023-03-19T09:13:33.938Z,13.9
2023-03-19T09:14:50.174Z,13.4
2023-03-19T09:16:06.434Z,13.7
2023-03-19T09:17:22.681Z,14.5
2023-03-19T09:18:38.901Z,13.4
2023-03-19T09:19:55.148Z,14.4
2023-03-19T09:21:11.388Z,13.6
2023-03-19T09:22:27.641Z,13.8
2023-03-19T09:23:43.868Z,14.4
2023-03-19T09:25:00.089Z,13.7
2023-03-19T09:26:16.335Z,14.3
2023-03-19T09:27:32.598Z,15
2023-03-19T09:28:48.818Z,15.7
2023-03-19T09:30:04.074Z,15.3
2023-03-19T09:31:20.311Z,14.2
2023-03-19T09:32:36.562Z,14.3
2023-03-19T09:33:52.788Z,14
2023-03-19T09:35:09.036Z,13.6
2023-03-19T09:36:25.282Z,14.6
2023-03-19T09:37:41.526Z,14.5
2023-03-19T09:38:57.743Z,15
2023-03-19T09:40:14.006Z,14.3
2023-03-19T09:41:30.226Z,13.6
2023-03-19T09:42:46.468Z,14.7
2023-03-19T09:44:02.702Z,13.9
2023-03-19T09:45:18.943Z,14.3
2023-03-19T09:46:34.216Z,15.3
2023-03-19T09:47:50.436Z,13.7
2023-03-19T09:49:06.703Z,14.8
2023-03-19T09:50:22.915Z,14.3
2023-03-19T09:51:39.166Z,14.6
2023-03-19T09:52:55.418Z,13.9
2023-03-19T09:54:11.661Z,14.3
2023-03-19T09:55:27.892Z,13.2
2023-03-19T09:56:44.134Z,13.9
2023-03-19T09:58:00.373Z,14.2
2023-03-19T09:59:16.604Z,15.2
2023-03-19T10:00:32.865Z,13.9
2023-03-19T10:01:49.074Z,16.1
2023-03-19T10:03:04.333Z,13.8
2023-03-19T10:04:20.573Z,15.7
2023-03-19T10:05:36.824Z,16.9
2023-03-19T10:06:53.064Z,14.4
2023-03-19T10:08:09.304Z,14.9
2023-03-19T10:09:25.543Z,14.1
2023-03-19T10:10:41.773Z,17.4
2023-03-19T10:11:58.013Z,13.2
2023-03-19T10:13:14.261Z,12.4
2023-03-19T10:14:30.509Z,13.2
2023-03-19T10:15:46.755Z,12.3
2023-03-19T10:17:02.972Z,12.1
2023-03-19T10:18:19.204Z,11.6
2023-03-19T10:19:34.497Z,11.9
2023-03-19T10:20:50.698Z,12.6
2023-03-19T10:22:06.948Z,12.1
2023-03-19T10:23:23.215Z,11.2
2023-03-19T10:24:39.420Z,11.2
2023-03-19T10:25:55.666Z,10.2
2023-03-19T10:27:11.911Z,10.1
2023-03-19T10:28:28.156Z,9.8
2023-03-19T10:29:44.395Z,11.4
2023-03-19T10:31:00.619Z,10.9
2023-03-19T10:32:16.855Z,10.7
2023-03-19T10:33:33.133Z,10.5
2023-03-19T10:34:49.340Z,10.9
2023-03-19T10:36:04.596Z,10.9
2023-03-19T10:37:20.841Z,10.7
2023-03-19T10:38:37.112Z,11.4
2023-03-19T10:39:53.328Z,9.7
2023-03-19T10:41:09.552Z,12.1
2023-03-19T10:42:25.792Z,11.3
2023-03-19T10:43:42.075Z,9.7
2023-03-19T10:44:58.324Z,12.4
2023-03-19T10:46:14.523Z,11.1
2023-03-19T10:47:30.756Z,10.6
2023-03-19T10:48:46.995Z,10.7
2023-03-19T10:50:03.241Z,12.7
2023-03-19T10:51:19.519Z,10.7
2023-03-19T10:52:34.772Z,11.2
2023-03-19T10:53:51.010Z,11.5
2023-03-19T10:55:07.217Z,11.1
2023-03-19T10:56:23.448Z,12.5
2023-03-19T10:57:39.700Z,10.5
2023-03-19T10:58:55.927Z,9.5
2023-03-19T11:00:11.235Z,10.1
2023-03-19T11:01:27.475Z,9.7
2023-03-19T11:02:43.669Z,11.5
2023-03-19T11:03:59.908Z,12.3
2023-03-19T11:05:16.212Z,11.6
2023-03-19T11:06:32.387Z,10.4
2023-03-19T11:07:48.673Z,10.7
2023-03-19T11:09:04.869Z,10.5
2023-03-19T11:10:21.115Z,9.5
2023-03-19T11:11:37.402Z,8.8
2023-03-19T11:12:53.600Z,10.2
2023-03-19T11:14:09.826Z,12.3
2023-03-19T11:15:26.067Z,10.6
2023-03-19T11:16:41.325Z,11.4
2023-03-19T11:17:57.566Z,10.8
2023-03-19T11:19:13.847Z,10.3
2023-03-19T11:20:30.100Z,10.5
2023-03-19T11:21:46.324Z,10.1
2023-03-19T11:23:02.572Z,10.9
2023-03-19T11:24:18.761Z,10.7
2023-03-19T11:25:35.009Z,10.8
2023-03-19T11:26:51.299Z,9
2023-03-19T11:28:07.488Z,9.5
2023-03-19T11:29:23.723Z,9.8
2023-03-19T11:30:39.955Z,11.1
2023-03-19T11:31:56.261Z,10.9
2023-03-19T11:33:11.456Z,10.7
2023-03-19T11:34:27.750Z,9.9
2023-03-19T11:35:43.951Z,9.1
2023-03-19T11:37:00.234Z,9.4
2023-03-19T11:38:16.470Z,9.1
2023-03-19T11:39:32.659Z,9
2023-03-19T11:40:48.907Z,9.1
2023-03-19T11:42:05.189Z,9
2023-03-19T11:43:21.382Z,9
2023-03-19T11:44:37.663Z,9
2023-03-19T11:45:53.913Z,9
2023-03-19T11:47:10.143Z,8.8
2023-03-19T11:48:26.337Z,8.8
2023-03-19T11:49:41.595Z,10.1
2023-03-19T11:50:57.842Z,8.6
2023-03-19T11:52:14.116Z,8.2
2023-03-19T11:53:30.311Z,7.2
2023-03-19T11:54:46.550Z,8.6
2023-03-19T11:56:02.795Z,8.7
2023-03-19T11:57:19.028Z,8.3
2023-03-19T11:58:35.273Z,7.7
2023-03-19T11:59:51.520Z,8
2023-03-19T12:01:07.751Z,8.3
2023-03-19T12:02:23.992Z,9.3
2023-03-19T12:03:40.227Z,9.5
2023-03-19T12:04:56.512Z,8.5
2023-03-19T12:06:11.737Z,8.2
2023-03-19T12:07:27.969Z,8.2
2023-03-19T12:08:44.203Z,9.4
2023-03-19T12:10:00.484Z,8.4
2023-03-19T12:11:16.685Z,9.5
2023-03-19T12:12:32.917Z,7.2
2023-03-19T12:13:49.204Z,6.8
2023-03-19T12:15:05.406Z,8.7
2023-03-19T12:16:21.699Z,8.4
2023-03-19T12:17:37.885Z,7
2023-03-19T12:18:54.125Z,7.3
2023-03-19T12:20:10.413Z,8.7
2023-03-19T12:21:26.598Z,8.5
2023-03-19T12:22:41.909Z,8.1
2023-03-19T12:23:58.144Z,7.5
2023-03-19T12:25:14.388Z,8.1
2023-03-19T12:26:30.584Z,7.3
2023-03-19T12:27:46.822Z,6.9
2023-03-19T12:29:03.065Z,8.3
2023-03-19T12:30:19.305Z,10.1
2023-03-19T12:31:35.532Z,8.8
2023-03-19T12:32:51.775Z,7.8
2023-03-19T12:34:08.015Z,9.3
2023-03-19T12:35:24.250Z,8
2023-03-19T12:36:40.504Z,6.9
2023-03-19T12:37:56.736Z,6.6
2023-03-19T12:39:11.996Z,9.1
2023-03-19T12:40:28.237Z,7.8
2023-03-19T12:41:44.466Z,7.2
2023-03-19T12:43:00.707Z,9
2023-03-19T12:44:16.958Z,8.3
2023-03-19T12:45:33.187Z,7.5
2023-03-19T12:46:49.483Z,8.4
2023-03-19T12:48:05.664Z,8.5
2023-03-19T12:49:21.912Z,9
2023-03-19T12:50:38.194Z,6.8
2023-03-19T12:51:54.385Z,8.4
2023-03-19T12:53:10.628Z,6.1
2023-03-19T12:54:26.876Z,6.9
2023-03-19T12:55:42.126Z,7.2
2023-03-19T12:56:58.365Z,7
2023-03-19T12:58:14.649Z,6
2023-03-19T12:59:30.840Z,7.8
2023-03-19T13:00:47.094Z,7.1
2023-03-19T13:02:03.377Z,7.1
2023-03-19T13:03:19.623Z,8
2023-03-19T13:04:35.815Z,7.4
2023-03-19T13:05:52.086Z,7.3
2023-03-19T13:07:08.297Z,7
2023-03-19T13:08:24.526Z,7.5
2023-03-19T13:09:40.757Z,6.1
2023-03-19T13:10:57.003Z,7.9
2023-03-19T13:12:12.266Z,7.2
2023-03-19T13:13:28.547Z,7.5
2023-03-19T13:14:44.739Z,6.5
2023-03-19T13:16:01.024Z,6.7
2023-03-19T13:17:17.274Z,6.2
2023-03-19T13:18:33.509Z,5.7
2023-03-19T13:19:49.749Z,7.2
2023-03-19T13:21:05.988Z,6.9
2023-03-19T13:22:22.186Z,5.2
2023-03-19T13:23:38.411Z,6.6
2023-03-19T13:24:54.649Z,7.2
2023-03-19T13:26:10.908Z,5.7
2023-03-19T13:27:27.183Z,6.4
2023-03-19T13:28:42.453Z,6.8
2023-03-19T13:29:58.640Z,7
2023-03-19T13:31:14.879Z,6
2023-03-19T13:32:31.105Z,6.3
2023-03-19T13:33:47.347Z,5.8
2023-03-19T13:35:03.588Z,7.1
2023-03-19T13:36:19.826Z,5.3
2023-03-19T13:37:36.068Z,5.8
2023-03-19T13:38:52.307Z,4.8
2023-03-19T13:40:08.550Z,4.5
2023-03-19T13:41:24.831Z,6.1
2023-03-19T13:42:41.020Z,3.9
2023-03-19T13:43:57.275Z,5.6
2023-03-19T13:45:12.527Z,5.4
2023-03-19T13:46:28.758Z,4.6
2023-03-19T13:47:44.996Z,3.9
2023-03-19T13:49:01.248Z,6.2
2023-03-19T13:50:17.495Z,6.1
2023-03-19T13:51:33.764Z,5.1
2023-03-19T13:52:49.970Z,4.7
2023-03-19T13:54:06.248Z,4.3
2023-03-19T13:55:22.448Z,4.3
2023-03-19T13:56:38.676Z,4.5
2023-03-19T13:57:54.917Z,5.7
2023-03-19T13:59:11.157Z,3.6
2023-03-19T14:00:27.398Z,4.8
2023-03-19T14:01:42.651Z,4.9
2023-03-19T14:02:58.948Z,5.1
2023-03-19T14:04:15.189Z,5.1
2023-03-19T14:05:31.388Z,4.5
2023-03-19T14:06:47.666Z,6.1
2023-03-19T14:08:03.856Z,4.7
2023-03-19T14:09:20.098Z,5.1
2023-03-19T14:10:36.330Z,7.7
2023-03-19T14:11:52.572Z,6.1
2023-03-19T14:13:08.807Z,6.4
2023-03-19T14:14:25.107Z,8.7
2023-03-19T14:15:41.294Z,6.2
2023-03-19T14:16:57.536Z,5.8
2023-03-19T14:18:12.801Z,5.9
2023-03-19T14:19:29.088Z,5.6
2023-03-19T14:20:45.000Z,6.4
2023-03-19T14:22:01.566Z,6.9
2023-03-19T14:23:17.742Z,6
2023-03-19T14:24:33.997Z,5.3
2023-03-19T14:25:50.227Z,5.7
2023-03-19T14:27:06.526Z,5.5
2023-03-19T14:28:22.710Z,6.9
2023-03-19T14:29:39.006Z,6.7
2023-03-19T14:30:55.188Z,5.4
2023-03-19T14:32:11.482Z,5.4
2023-03-19T14:33:27.714Z,6.6
2023-03-19T14:34:42.916Z,5.8
2023-03-19T14:35:59.000Z,7.1
2023-03-19T14:37:15.410Z,4.6
2023-03-19T14:38:31.695Z,4.9
2023-03-19T14:39:47.931Z,5.2
2023-03-19T14:41:04.116Z,5.5
2023-03-19T14:42:20.359Z,5.3
2023-03-19T14:43:36.599Z,9.6
2023-03-19T14:44:52.837Z,6
2023-03-19T14:46:09.091Z,5.7
2023-03-19T14:47:25.371Z,7.7
2023-03-19T14:48:41.612Z,7.6
2023-03-19T14:49:57.804Z,6.7
2023-03-19T14:51:13.051Z,5.8
2023-03-19T14:52:29.352Z,19.2
2023-03-19T14:53:45.545Z,9.6
2023-03-19T14:55:01.821Z,55
2023-03-19T14:56:18.028Z,22.5
2023-03-19T14:57:34.254Z,37.2
2023-03-19T14:58:50.501Z,51.2
2023-03-19T15:00:06.734Z,40
2023-03-19T15:01:22.973Z,17
2023-03-19T15:02:39.210Z,10.3
2023-03-19T15:03:55.447Z,23.8
2023-03-19T15:05:11.697Z,30.3
2023-03-19T15:06:27.925Z,8.6
2023-03-19T15:07:43.239Z,30.9
2023-03-19T15:08:59.433Z,20.1
2023-03-19T15:10:15.663Z,31.1
2023-03-19T15:11:31.914Z,14.4
2023-03-19T15:12:48.148Z,15.4
2023-03-19T15:14:04.395Z,23.6
2023-03-19T15:15:19.652Z,38.3
2023-03-19T15:16:35.948Z,9.6
2023-03-19T15:17:52.189Z,36.6
2023-03-19T15:19:08.000Z,11.8
2023-03-19T15:20:24.663Z,12.2
2023-03-19T15:21:40.844Z,18.5
2023-03-19T15:22:57.151Z,11.8
2023-03-19T15:24:13.322Z,10
2023-03-19T15:25:29.624Z,34.8
2023-03-19T15:26:45.806Z,10.4
2023-03-19T15:28:02.050Z,15.5
2023-03-19T15:29:18.281Z,6.6
2023-03-19T15:30:34.529Z,34.5
2023-03-19T15:31:49.793Z,51.3
2023-03-19T15:33:06.025Z,19.1
2023-03-19T15:34:22.330Z,5.5
2023-03-19T15:35:38.498Z,9.5
2023-03-19T15:36:54.790Z,14.8
2023-03-19T15:38:11.036Z,20.3
2023-03-19T15:39:27.276Z,15.9
2023-03-19T15:40:43.468Z,22.3
2023-03-19T15:41:59.705Z,8.9
2023-03-19T15:43:15.935Z,11.4
2023-03-19T15:44:32.190Z,20.8
2023-03-19T15:45:48.000Z,6.3
2023-03-19T15:47:04.664Z,7.4
2023-03-19T15:48:19.977Z,18.8
2023-03-19T15:49:36.213Z,38.4
2023-03-19T15:50:52.392Z,63.2
2023-03-19T15:52:08.638Z,42.5
2023-03-19T15:53:24.888Z,18.5
2023-03-19T15:54:41.179Z,33.6
2023-03-19T15:55:57.352Z,13.1
2023-03-19T15:57:13.650Z,64.3
2023-03-19T15:58:29.841Z,7.1
2023-03-19T15:59:46.080Z,6.3
2023-03-19T16:01:02.312Z,6.2
2023-03-19T16:02:18.570Z,5.4
2023-03-19T16:03:34.790Z,6.6
2023-03-19T16:04:50.120Z,7.1
2023-03-19T16:06:06.303Z,5.9
2023-03-19T16:07:22.538Z,6.7
2023-03-19T16:08:38.765Z,6.3
2023-03-19T16:09:55.007Z,6.1
2023-03-19T16:11:11.301Z,5
2023-03-19T16:12:27.495Z,6.3
2023-03-19T16:13:43.783Z,5.7
2023-03-19T16:14:59.982Z,5.9
2023-03-19T16:16:16.211Z,6.6
2023-03-19T16:17:32.461Z,6.4
2023-03-19T16:18:48.690Z,6.4
2023-03-19T16:20:04.933Z,7.1
2023-03-19T16:21:20.244Z,6.2
2023-03-19T16:22:36.423Z,6.1
2023-03-19T16:23:52.717Z,5.8
2023-03-19T16:25:08.911Z,5.7
2023-03-19T16:26:25.199Z,5.2
2023-03-19T16:27:41.384Z,5.5
2023-03-19T16:28:57.626Z,6
2023-03-19T16:30:13.874Z,5.9
2023-03-19T16:31:30.154Z,6.7
2023-03-19T16:32:46.339Z,6.5
2023-03-19T16:34:02.637Z,6.3
2023-03-19T16:35:18.828Z,6.8
2023-03-19T16:36:35.122Z,5.3
2023-03-19T16:37:50.386Z,8.2
2023-03-19T16:39:06.628Z,8.1
2023-03-19T16:40:22.806Z,6
2023-03-19T16:41:39.000Z,8.2
2023-03-19T16:42:55.348Z,7.5
2023-03-19T16:44:11.521Z,7.2
2023-03-19T16:45:27.760Z,7
2023-03-19T16:46:43.992Z,5.5
2023-03-19T16:48:00.232Z,6.8
2023-03-19T16:49:16.486Z,6.7
2023-03-19T16:50:32.714Z,6.5
2023-03-19T16:51:49.012Z,5.4
2023-03-19T16:53:05.205Z,5.9
2023-03-19T16:54:20.449Z,4.8
2023-03-19T16:55:36.762Z,5.7
2023-03-19T16:56:52.933Z,5.9
2023-03-19T16:58:09.243Z,5.6
2023-03-19T16:59:25.422Z,5.6
2023-03-19T17:00:41.706Z,5.6
2023-03-19T17:01:57.886Z,5.7
2023-03-19T17:03:14.133Z,5.7
2023-03-19T17:04:30.385Z,5.2
2023-03-19T17:05:46.669Z,5.8
2023-03-19T17:07:02.854Z,6.4
2023-03-19T17:08:19.090Z,5.7
2023-03-19T17:09:35.333Z,5.9
2023-03-19T17:10:50.582Z,7.3
2023-03-19T17:12:06.894Z,6.4
2023-03-19T17:13:23.068Z,5
2023-03-19T17:14:39.307Z,5.2